createdAt,value
2023-01-10T00:02:41.804Z,100367.25
2023-01-10T00:07:43.505Z,100369.75
2023-01-10T00:13:03.523Z,100377.44
2023-01-10T00:18:05.374Z,100392.09
2023-01-10T00:23:06.848Z,100404.38
2023-01-10T00:28:20.812Z,100415.75
2023-01-10T00:33:22.793Z,100412.31
2023-01-10T00:38:24.567Z,100421.75
2023-01-10T00:43:44.519Z,100437.25
2023-01-10T00:48:45.973Z,100438.03
2023-01-10T00:53:47.503Z,100445.88
2023-01-10T00:58:49.194Z,100465.81
2023-01-10T01:03:50.621Z,100465.88
2023-01-10T01:08:52.138Z,100472.75
2023-01-10T01:13:53.674Z,100488.25
2023-01-10T01:18:55.187Z,100490.88
2023-01-10T01:23:57.179Z,100507.25
2023-01-10T01:28:58.605Z,100521.81
2023-01-10T01:34:00.104Z,100536.34
2023-01-10T01:39:01.634Z,100539.75
2023-01-10T01:44:13.965Z,100551.84
2023-01-10T01:49:21.987Z,100565.53
2023-01-10T01:54:23.598Z,100575.09
2023-01-10T01:59:31.751Z,100587.94
2023-01-10T02:04:41.208Z,100577.53
2023-01-10T02:09:51.470Z,100589.53
2023-01-10T02:14:54.273Z,100587.75
2023-01-10T02:20:03.157Z,100603.38
2023-01-10T02:25:26.427Z,100617.19
2023-01-10T02:30:33.689Z,100640.34
2023-01-10T02:35:56.715Z,100640.28
2023-01-10T02:41:25.470Z,100631.63
2023-01-10T02:46:30.192Z,100633.38
2023-01-10T02:51:33.596Z,100629.19
2023-01-10T02:57:08.854Z,100646.44
2023-01-10T03:02:47.579Z,100637.78
2023-01-10T03:08:22.909Z,100648.97
2023-01-10T03:13:53.528Z,100668.91
2023-01-10T03:19:06.345Z,100681.03
2023-01-10T03:24:15.529Z,100690.66
2023-01-10T03:29:32.124Z,100693.28
2023-01-10T03:34:34.698Z,100708.00
2023-01-10T03:39:42.228Z,100712.34
2023-01-10T03:44:58.291Z,100718.44
2023-01-10T03:50:06.570Z,100740.88
2023-01-10T03:55:12.329Z,100751.19
2023-01-10T04:00:16.508Z,100762.41
2023-01-10T04:05:18.030Z,100770.16
2023-01-10T04:10:21.107Z,100769.28
2023-01-10T04:15:22.593Z,100772.72
2023-01-10T04:20:27.232Z,100788.22
2023-01-10T04:25:28.629Z,100794.25
2023-01-10T04:30:30.150Z,100796.81
2023-01-10T04:35:31.638Z,100801.03
2023-01-10T04:40:33.120Z,100814.84
2023-01-10T04:45:34.668Z,100816.56
2023-01-10T04:50:36.200Z,100830.38
2023-01-10T04:55:37.664Z,100839.00
2023-01-10T05:00:39.404Z,100857.13
2023-01-10T05:05:40.837Z,100863.16
2023-01-10T05:10:42.363Z,100868.34
2023-01-10T05:15:43.889Z,100869.22
2023-01-10T05:20:45.403Z,100880.41
2023-01-10T05:25:46.870Z,100889.91
2023-01-10T05:30:49.084Z,100897.66
2023-01-10T05:35:50.583Z,100901.09
2023-01-10T05:40:56.362Z,100911.44
2023-01-10T05:45:57.920Z,100939.91
2023-01-10T05:50:59.454Z,100937.31
2023-01-10T05:56:02.342Z,100941.63
2023-01-10T06:01:04.023Z,100942.47
2023-01-10T06:06:05.816Z,100951.94
2023-01-10T06:11:07.710Z,100955.41
2023-01-10T06:16:09.608Z,100976.09
2023-01-10T06:21:11.103Z,100988.16
2023-01-10T06:26:12.827Z,100998.50
2023-01-10T06:31:14.963Z,101001.09
2023-01-10T06:36:16.681Z,101007.97
2023-01-10T06:41:18.157Z,101015.75
2023-01-10T06:46:20.146Z,101026.94
2023-01-10T06:51:21.710Z,101036.41
2023-01-10T06:56:23.261Z,101029.50
2023-01-10T07:01:24.772Z,101035.50
2023-01-10T07:06:26.278Z,101048.44
2023-01-10T07:11:27.746Z,101050.97
2023-01-10T07:16:29.415Z,101057.00
2023-01-10T07:21:30.936Z,101061.31
2023-01-10T07:26:32.376Z,101065.63
2023-01-10T07:31:33.952Z,101063.94
2023-01-10T07:36:39.206Z,101070.81
2023-01-10T07:41:40.955Z,101075.00
2023-01-10T07:46:43.085Z,101080.19
2023-01-10T07:51:44.539Z,101075.00
2023-01-10T07:56:47.288Z,101081.03
2023-01-10T08:01:48.836Z,101076.66
2023-01-10T08:06:51.064Z,101093.88
2023-01-10T08:11:52.556Z,101096.44
2023-01-10T08:16:54.143Z,101111.91
2023-01-10T08:21:55.573Z,101118.78
2023-01-10T08:27:00.376Z,101129.13
2023-01-10T08:32:02.113Z,101140.31
2023-01-10T08:37:04.256Z,101124.91
2023-01-10T08:42:05.967Z,101137.84
2023-01-10T08:47:07.429Z,101145.66
2023-01-10T08:52:08.894Z,101147.47
2023-01-10T08:57:10.427Z,101145.84
2023-01-10T09:02:15.058Z,101125.13
2023-01-10T09:07:16.537Z,101108.78
2023-01-10T09:12:36.389Z,101130.41
2023-01-10T09:17:37.926Z,101133.88
2023-01-10T09:22:39.834Z,101134.72
2023-01-10T09:27:41.482Z,101138.19
2023-01-10T09:32:42.957Z,101172.66
2023-01-10T09:37:44.438Z,101173.53
2023-01-10T09:43:19.061Z,101193.41
2023-01-10T09:48:46.040Z,101198.59
2023-01-10T09:53:50.596Z,101204.66
2023-01-10T09:58:52.786Z,101205.50
2023-01-10T10:04:42.255Z,101212.44
2023-01-10T10:09:43.775Z,101209.81
2023-01-10T10:15:19.600Z,101204.66
2023-01-10T10:20:33.256Z,101189.97
2023-01-10T10:25:56.823Z,101196.88
2023-01-10T10:31:14.995Z,101207.25
2023-01-10T10:36:23.834Z,101201.19
2023-01-10T10:41:46.218Z,101224.50
2023-01-10T10:46:47.883Z,101226.22
2023-01-10T10:51:53.797Z,101223.63
2023-01-10T10:56:56.234Z,101224.47
2023-01-10T11:01:58.153Z,101217.56
2023-01-10T11:07:00.828Z,101236.56
2023-01-10T11:12:03.970Z,101230.50
2023-01-10T11:17:25.662Z,101222.72
2023-01-10T11:22:30.428Z,101220.97
2023-01-10T11:27:37.556Z,101224.41
2023-01-10T11:32:48.210Z,101219.22
2023-01-10T11:38:15.603Z,101215.75
2023-01-10T11:43:38.436Z,101220.09
2023-01-10T11:49:05.143Z,101218.31
2023-01-10T11:54:13.004Z,101213.94
2023-01-10T11:59:17.919Z,101213.94
2023-01-10T12:04:21.213Z,101216.50
2023-01-10T12:09:35.083Z,101211.31
2023-01-10T12:14:36.577Z,101215.66
2023-01-10T12:19:38.047Z,101220.78
2023-01-10T12:24:44.115Z,101227.72
2023-01-10T12:30:17.602Z,101224.22
2023-01-10T12:35:27.740Z,101228.59
2023-01-10T12:40:45.145Z,101229.47
2023-01-10T12:46:01.142Z,101225.13
2023-01-10T12:51:15.168Z,101210.47
2023-01-10T12:56:19.191Z,101218.22
2023-01-10T13:01:35.167Z,101216.44
2023-01-10T13:06:39.780Z,101211.25
2023-01-10T13:11:45.983Z,101219.00
2023-01-10T13:16:56.123Z,101219.06
2023-01-10T13:22:21.108Z,101218.19
2023-01-10T13:27:25.299Z,101212.19
2023-01-10T13:32:33.471Z,101216.44
2023-01-10T13:37:41.268Z,101214.69
2023-01-10T13:43:01.570Z,101214.69
2023-01-10T13:48:04.612Z,101209.50
2023-01-10T13:53:09.201Z,101210.38
2023-01-10T13:58:13.293Z,101212.13
2023-01-10T14:03:50.288Z,101212.97
2023-01-10T14:08:54.845Z,101220.78
2023-01-10T14:14:00.594Z,101225.13
2023-01-10T14:19:05.657Z,101219.09
2023-01-10T14:24:23.439Z,101206.09
2023-01-10T14:29:31.876Z,101204.34
2023-01-10T14:34:37.324Z,101197.41
2023-01-10T14:39:42.175Z,101205.19
2023-01-10T14:44:51.072Z,101202.66
2023-01-10T14:49:52.574Z,101200.97
2023-01-10T14:55:24.592Z,101184.56
2023-01-10T15:00:36.493Z,101175.09
2023-01-10T15:05:46.156Z,101175.09
2023-01-10T15:10:52.137Z,101168.19
2023-01-10T15:15:54.547Z,101174.28
2023-01-10T15:20:57.993Z,101172.59
2023-01-10T15:26:03.007Z,101169.19
2023-01-10T15:31:05.883Z,101160.50
2023-01-10T15:36:14.192Z,101152.78
2023-01-10T15:41:19.569Z,101143.28
2023-01-10T15:46:28.128Z,101146.75
2023-01-10T15:51:37.666Z,101138.13
2023-01-10T15:57:06.560Z,101147.66
2023-01-10T16:02:29.768Z,101134.69
2023-01-10T16:07:34.373Z,101131.25
2023-01-10T16:12:59.283Z,101119.16
2023-01-10T16:18:01.128Z,101120.03
2023-01-10T16:23:05.053Z,101113.97
2023-01-10T16:28:06.516Z,101119.16
2023-01-10T16:33:16.093Z,101123.44
2023-01-10T16:38:18.828Z,101115.69
2023-01-10T16:43:25.783Z,101112.25
2023-01-10T16:48:29.283Z,101109.63
2023-01-10T16:53:30.847Z,101110.50
2023-01-10T16:58:32.378Z,101100.16
2023-01-10T17:03:37.556Z,101093.25
2023-01-10T17:08:39.129Z,101074.28
2023-01-10T17:13:43.325Z,101063.94
2023-01-10T17:18:44.863Z,101059.63
2023-01-10T17:23:47.086Z,101049.25
2023-01-10T17:28:49.682Z,101046.63
2023-01-10T17:33:51.351Z,101032.00
2023-01-10T17:38:52.845Z,101031.13
2023-01-10T17:43:54.392Z,101024.25
2023-01-10T17:48:55.910Z,101015.59
2023-01-10T17:53:58.891Z,100998.31
2023-01-10T17:59:00.293Z,100993.16
2023-01-10T18:04:01.814Z,100989.72
2023-01-10T18:09:04.300Z,100984.59
2023-01-10T18:14:41.018Z,100985.41
2023-01-10T18:19:42.567Z,100962.97
2023-01-10T18:24:45.257Z,100950.88
2023-01-10T18:29:46.963Z,100942.25
2023-01-10T18:34:48.796Z,100932.78
2023-01-10T18:39:50.348Z,100939.63
2023-01-10T18:44:51.831Z,100937.94
2023-01-10T18:49:53.379Z,100933.63
2023-01-10T18:54:55.023Z,100913.75
2023-01-10T18:59:56.459Z,100910.31
2023-01-10T19:04:57.934Z,100902.50
2023-01-10T19:09:59.462Z,100913.72
2023-01-10T19:15:01.084Z,100897.31
2023-01-10T19:20:02.794Z,100884.38
2023-01-10T19:25:04.843Z,100879.13
2023-01-10T19:30:07.128Z,100876.50
2023-01-10T19:35:09.043Z,100859.22
2023-01-10T19:40:12.246Z,100861.78
2023-01-10T19:45:13.811Z,100842.75
2023-01-10T19:50:15.613Z,100847.09
2023-01-10T19:55:17.045Z,100851.38
2023-01-10T20:00:18.861Z,100834.16
2023-01-10T20:05:20.385Z,100832.47
2023-01-10T20:10:21.974Z,100819.56
2023-01-10T20:15:23.851Z,100795.41
2023-01-10T20:20:25.416Z,100785.13
2023-01-10T20:25:26.996Z,100772.25
2023-01-10T20:30:28.498Z,100750.75
2023-01-10T20:35:30.123Z,100725.75
2023-01-10T20:40:31.627Z,100712.84
2023-01-10T20:45:34.384Z,100709.44
2023-01-10T20:50:35.826Z,100672.38
2023-01-10T20:55:41.439Z,100657.78
2023-01-10T21:00:42.950Z,100650.00
2023-01-10T21:05:52.083Z,100638.84
2023-01-10T21:10:53.530Z,100617.31
2023-01-10T21:15:56.895Z,100600.09
2023-01-10T21:20:59.940Z,100608.66
2023-01-10T21:26:04.582Z,100585.41
2023-01-10T21:31:06.370Z,100567.34
2023-01-10T21:36:08.556Z,100556.88
2023-01-10T21:41:14.735Z,100573.25
2023-01-10T21:46:16.429Z,100555.13
2023-01-10T21:51:17.854Z,100555.19
2023-01-10T21:56:19.300Z,100563.81
2023-01-10T22:01:20.768Z,100553.44
2023-01-10T22:06:22.426Z,100539.63
2023-01-10T22:11:24.027Z,100521.59
2023-01-10T22:16:25.499Z,100510.38
2023-01-10T22:21:27.024Z,100497.44
2023-01-10T22:26:28.498Z,100481.91
2023-01-10T22:31:30.117Z,100468.13
2023-01-10T22:36:31.592Z,100462.03
2023-01-10T22:41:33.807Z,100456.84
2023-01-10T22:46:35.263Z,100434.47
2023-01-10T22:51:37.533Z,100412.00
2023-01-10T22:56:39.487Z,100418.88
2023-01-10T23:01:41.911Z,100393.78
2023-01-10T23:06:43.601Z,100381.75
2023-01-10T23:11:45.041Z,100372.22
2023-01-10T23:16:46.588Z,100373.06
2023-01-10T23:21:48.131Z,100357.63
2023-01-10T23:26:50.585Z,100350.69
2023-01-10T23:31:52.034Z,100331.72
2023-01-10T23:36:53.502Z,100324.81
2023-01-10T23:41:55.010Z,100317.88
2023-01-10T23:46:56.431Z,100317.81
2023-01-10T23:51:57.850Z,100294.44
2023-01-10T23:56:59.933Z,100307.34
